createdAt,value
2019-03-04T09:00:33.489Z,975.17
2019-03-04T09:01:26.736Z,975.13
2019-03-04T09:02:26.801Z,975.17
2019-03-04T09:03:26.709Z,975.17
2019-03-04T09:04:26.701Z,975.22
2019-03-04T09:05:26.688Z,975.17
2019-03-04T09:06:26.677Z,975.29
2019-03-04T09:07:26.700Z,975.29
2019-03-04T09:08:26.663Z,975.32
2019-03-04T09:09:26.646Z,975.28
2019-03-04T09:10:26.637Z,975.29
2019-03-04T09:11:26.622Z,975.29
2019-03-04T09:12:26.656Z,975.31
2019-03-04T09:13:26.601Z,975.29
2019-03-04T09:14:26.633Z,975.21
2019-03-04T09:15:26.580Z,975.49
2019-03-04T09:16:26.573Z,975.22
2019-03-04T09:17:26.580Z,975.22
2019-03-04T09:18:26.557Z,975.26
2019-03-04T09:19:26.538Z,975.17
2019-03-04T09:20:26.546Z,975.29
2019-03-04T09:21:26.513Z,975.13
2019-03-04T09:22:26.529Z,975.14
2019-03-04T09:23:26.489Z,975.21
2019-03-04T09:24:26.515Z,975.24
2019-03-04T09:25:30.548Z,975.29
2019-03-04T09:26:26.459Z,975.25
2019-03-04T09:27:26.482Z,975.28
2019-03-04T09:28:26.434Z,975.26
2019-03-04T09:29:26.426Z,975.11
2019-03-04T09:30:26.412Z,975.17
2019-03-04T09:31:26.402Z,975.19
2019-03-04T09:32:26.445Z,975.23
2019-03-04T09:33:26.400Z,975.22
2019-03-04T09:34:26.370Z,975.16
2019-03-04T09:35:26.374Z,975.19
2019-03-04T09:36:26.349Z,975.34
2019-03-04T09:37:26.355Z,975.21
2019-03-04T09:38:26.347Z,975.30
2019-03-04T09:39:26.311Z,975.09
2019-03-04T09:40:26.317Z,975.25
2019-03-04T09:41:26.289Z,975.05
2019-03-04T09:42:26.278Z,975.26
2019-03-04T09:43:26.292Z,975.28
2019-03-04T09:44:26.278Z,975.19
2019-03-04T09:45:26.244Z,975.13
2019-03-04T09:46:26.271Z,975.28
2019-03-04T09:47:26.226Z,975.04
2019-03-04T09:48:26.247Z,975.17
2019-03-04T09:49:26.200Z,975.09
2019-03-04T09:50:26.193Z,975.14
2019-03-04T09:51:26.177Z,975.20
2019-03-04T09:52:26.168Z,975.16
2019-03-04T09:53:26.203Z,975.27
2019-03-04T09:54:26.145Z,975.20
2019-03-04T09:55:26.135Z,975.22
2019-03-04T09:56:26.126Z,975.29
2019-03-04T09:57:26.112Z,975.24
2019-03-04T09:58:26.124Z,975.35
2019-03-04T09:59:26.094Z,975.23
2019-03-04T10:00:26.092Z,975.23
2019-03-04T10:01:26.069Z,975.11
2019-03-04T10:02:26.065Z,975.09
2019-03-04T10:03:26.064Z,975.13
2019-03-04T10:04:26.039Z,975.25
2019-03-04T10:05:26.024Z,975.27
2019-03-04T10:06:26.011Z,975.22
2019-03-04T10:07:26.031Z,975.17
2019-03-04T10:08:32.904Z,975.15
2019-03-04T10:09:27.028Z,975.16
2019-03-04T10:10:25.968Z,975.15
2019-03-04T10:11:25.962Z,975.05
2019-03-04T10:12:25.945Z,974.90
2019-03-04T10:13:25.968Z,974.83
2019-03-04T10:14:25.924Z,974.91
2019-03-04T10:15:25.942Z,974.87
2019-03-04T10:16:25.909Z,974.92
2019-03-04T10:17:25.897Z,974.91
2019-03-04T10:18:25.900Z,974.92
2019-03-04T10:19:25.864Z,974.65
2019-03-04T10:20:25.878Z,974.89
2019-03-04T10:21:25.845Z,974.84
2019-03-04T10:22:25.839Z,974.96
2019-03-04T10:23:25.849Z,974.85
2019-03-04T10:24:25.826Z,974.87
2019-03-04T10:25:25.814Z,974.94
2019-03-04T10:26:25.789Z,974.91
2019-03-04T10:27:25.819Z,974.83
2019-03-04T10:28:25.765Z,974.95
2019-03-04T10:29:25.775Z,974.91
2019-03-04T10:30:25.765Z,974.64
2019-03-04T10:31:25.732Z,974.73
2019-03-04T10:32:25.719Z,974.77
2019-03-04T10:33:25.711Z,974.85
2019-03-04T10:34:25.728Z,974.87
2019-03-04T10:35:25.717Z,974.72
2019-03-04T10:36:25.686Z,974.81
2019-03-04T10:37:25.664Z,974.80
2019-03-04T10:38:25.654Z,974.79
2019-03-04T10:39:25.673Z,974.72
2019-03-04T10:40:25.633Z,974.59
2019-03-04T10:41:25.627Z,974.67
2019-03-04T10:42:25.608Z,974.76
2019-03-04T10:43:25.654Z,974.73
2019-03-04T10:44:25.610Z,974.69
2019-03-04T10:45:25.576Z,974.54
2019-03-04T10:46:25.574Z,974.69
2019-03-04T10:47:25.561Z,974.58
2019-03-04T10:48:25.546Z,974.63
2019-03-04T10:49:25.573Z,974.64
2019-03-04T10:50:25.521Z,974.62
2019-03-04T10:51:25.540Z,974.54
2019-03-04T10:52:25.505Z,974.61
2019-03-04T10:53:25.486Z,974.46
2019-03-04T10:54:25.474Z,974.63
2019-03-04T10:55:25.486Z,974.69
2019-03-04T10:56:25.464Z,974.56
2019-03-04T10:57:25.442Z,974.64
2019-03-04T10:58:25.433Z,974.58
2019-03-04T10:59:25.429Z,974.46
2019-03-04T11:00:26.969Z,974.53
2019-03-04T11:01:30.320Z,974.44
2019-03-04T11:02:26.419Z,974.58
2019-03-04T11:03:25.374Z,974.52
2019-03-04T11:04:25.416Z,974.78
2019-03-04T11:05:25.386Z,974.59
2019-03-04T11:06:25.342Z,974.53
2019-03-04T11:07:25.331Z,974.59
2019-03-04T11:08:25.328Z,974.57
2019-03-04T11:09:25.322Z,974.71
2019-03-04T11:10:25.318Z,974.49
2019-03-04T11:11:29.950Z,974.65
2019-03-04T11:12:25.273Z,974.55
2019-03-04T11:13:25.264Z,974.62
2019-03-04T11:14:25.264Z,974.65
2019-03-04T11:15:25.305Z,974.68
2019-03-04T11:16:25.226Z,974.68
2019-03-04T11:17:25.221Z,974.64
2019-03-04T11:18:25.218Z,974.77
2019-03-04T11:19:25.208Z,974.77
2019-03-04T11:20:25.208Z,974.74
2019-03-04T11:21:25.200Z,974.65
2019-03-04T11:22:25.162Z,974.65
2019-03-04T11:23:25.197Z,974.76
2019-03-04T11:24:25.151Z,974.79
2019-03-04T11:25:25.258Z,974.78
2019-03-04T11:26:25.118Z,974.82
2019-03-04T11:27:25.199Z,974.79
2019-03-04T11:28:25.102Z,974.68
2019-03-04T11:29:25.093Z,974.77
2019-03-04T11:30:28.475Z,974.82
2019-03-04T11:31:25.074Z,974.88
2019-03-04T11:32:25.054Z,974.72
2019-03-04T11:33:25.042Z,974.92
2019-03-04T11:34:25.033Z,974.77
2019-03-04T11:35:25.072Z,974.78
2019-03-04T11:36:25.005Z,974.66
2019-03-04T11:37:25.003Z,974.80
2019-03-04T11:38:24.991Z,974.74
2019-03-04T11:39:24.977Z,974.98
2019-03-04T11:40:24.989Z,974.86
2019-03-04T11:41:24.959Z,974.93
2019-03-04T11:42:24.943Z,974.88
2019-03-04T11:43:24.963Z,974.96
2019-03-04T11:44:24.927Z,974.94
2019-03-04T11:45:24.943Z,974.96
2019-03-04T11:46:24.956Z,974.86
2019-03-04T11:47:24.887Z,974.88
2019-03-04T11:48:24.878Z,974.97
2019-03-04T11:49:24.897Z,974.98
2019-03-04T11:50:24.883Z,974.99
2019-03-04T11:51:24.840Z,975.08
2019-03-04T11:52:24.832Z,975.00
2019-03-04T11:53:24.820Z,975.14
2019-03-04T11:54:24.814Z,975.17
2019-03-04T11:55:24.823Z,975.16
2019-03-04T11:56:24.820Z,975.15
2019-03-04T11:57:24.803Z,975.25
2019-03-04T11:58:24.768Z,975.10
2019-03-04T11:59:24.756Z,975.01
2019-03-04T12:00:24.747Z,974.99
2019-03-04T12:01:24.763Z,975.05
2019-03-04T12:02:24.748Z,975.05
2019-03-04T12:03:24.710Z,975.06
2019-03-04T12:04:24.701Z,975.12
2019-03-04T12:05:24.700Z,975.10
2019-03-04T12:06:24.712Z,975.15
2019-03-04T12:07:24.666Z,975.29
2019-03-04T12:08:24.672Z,975.42
2019-03-04T12:09:24.658Z,975.41
2019-03-04T12:10:24.636Z,975.56
2019-03-04T12:11:24.644Z,975.66
2019-03-04T12:12:24.619Z,975.74
2019-03-04T12:13:24.598Z,976.01
2019-03-04T12:14:24.593Z,975.89
2019-03-04T12:15:24.576Z,975.98
2019-03-04T12:16:24.600Z,976.27
2019-03-04T12:17:24.555Z,976.34
2019-03-04T12:18:24.541Z,976.23
2019-03-04T12:19:24.532Z,976.34
2019-03-04T12:20:24.523Z,976.48
2019-03-04T12:21:24.531Z,976.43
2019-03-04T12:22:24.514Z,976.47
2019-03-04T12:23:24.496Z,976.44
2019-03-04T12:24:24.479Z,976.46
2019-03-04T12:25:24.464Z,976.54
2019-03-04T12:26:24.479Z,976.54
2019-03-04T12:27:24.451Z,976.66
2019-03-04T12:28:24.446Z,976.70
2019-03-04T12:29:24.422Z,976.76
2019-03-04T12:30:24.410Z,976.79
2019-03-04T12:31:24.422Z,976.72
2019-03-04T12:32:24.392Z,976.78
2019-03-04T12:33:24.375Z,976.88
2019-03-04T12:34:25.060Z,976.83
2019-03-04T12:35:24.356Z,976.86
2019-03-04T12:36:24.365Z,976.81
2019-03-04T12:37:24.339Z,976.73
2019-03-04T12:38:24.345Z,976.76
2019-03-04T12:39:24.308Z,976.79
2019-03-04T12:40:24.319Z,976.85
2019-03-04T12:41:24.287Z,976.84
2019-03-04T12:42:24.299Z,976.94
2019-03-04T12:43:24.269Z,976.97
2019-03-04T12:44:24.307Z,977.02
2019-03-04T12:45:33.658Z,976.98
2019-03-04T12:46:25.263Z,976.90
2019-03-04T12:47:24.243Z,976.94
2019-03-04T12:48:24.213Z,976.96
2019-03-04T12:49:24.201Z,976.96
2019-03-04T12:50:24.187Z,977.04
2019-03-04T12:51:24.182Z,976.99
2019-03-04T12:52:24.191Z,977.13
2019-03-04T12:53:24.187Z,977.14
2019-03-04T12:54:24.148Z,977.17
2019-03-04T12:55:24.132Z,977.29
2019-03-04T12:56:24.123Z,977.25
2019-03-04T12:57:24.135Z,977.30
2019-03-04T12:58:24.106Z,977.41
2019-03-04T12:59:24.102Z,977.37
2019-03-04T13:00:24.079Z,977.42
2019-03-04T13:01:24.072Z,977.53
2019-03-04T13:02:24.079Z,977.55
2019-03-04T13:03:24.055Z,977.58
2019-03-04T13:04:24.062Z,977.64
2019-03-04T13:05:24.024Z,977.60
2019-03-04T13:06:24.026Z,977.65
2019-03-04T13:07:24.022Z,977.61
2019-03-04T13:08:24.005Z,977.65
2019-03-04T13:09:23.984Z,977.69
2019-03-04T13:10:23.981Z,977.76
2019-03-04T13:11:23.960Z,977.81
2019-03-04T13:12:24.007Z,977.79
2019-03-04T13:13:23.937Z,977.81
2019-03-04T13:14:23.946Z,977.81
2019-03-04T13:15:23.917Z,977.73
2019-03-04T13:16:23.908Z,977.83
2019-03-04T13:17:23.902Z,977.83
2019-03-04T13:18:23.937Z,977.88
2019-03-04T13:19:23.880Z,977.85
2019-03-04T13:20:23.861Z,977.84
2019-03-04T13:21:23.844Z,977.87
2019-03-04T13:22:23.840Z,977.89
2019-03-04T13:23:23.881Z,977.90
2019-03-04T13:24:23.820Z,977.93
2019-03-04T13:25:23.799Z,977.96
2019-03-04T13:26:23.802Z,977.94
2019-03-04T13:27:24.195Z,977.98
2019-03-04T13:28:23.787Z,977.95
2019-03-04T13:29:23.766Z,978.03
2019-03-04T13:30:23.753Z,977.96
2019-03-04T13:31:23.729Z,977.94
2019-03-04T13:32:23.734Z,977.91
2019-03-04T13:33:23.734Z,977.90
2019-03-04T13:34:23.697Z,977.92
2019-03-04T13:35:24.801Z,977.97
2019-03-04T13:36:23.725Z,977.91
2019-03-04T13:37:23.670Z,977.91
2019-03-04T13:38:23.676Z,977.95
2019-03-04T13:39:23.642Z,978.00
2019-03-04T13:40:23.629Z,977.98
2019-03-04T13:41:23.622Z,978.00
2019-03-04T13:42:23.607Z,978.02
2019-03-04T13:43:23.674Z,978.05
2019-03-04T13:44:23.586Z,978.07
2019-03-04T13:45:23.577Z,978.12
2019-03-04T13:46:23.568Z,978.18
2019-03-04T13:47:23.553Z,978.18
2019-03-04T13:48:23.566Z,978.21
2019-03-04T13:49:23.573Z,978.26
2019-03-04T13:50:23.543Z,978.27
2019-03-04T13:51:23.508Z,978.34
2019-03-04T13:52:23.499Z,978.34
2019-03-04T13:53:23.486Z,978.33
2019-03-04T13:54:23.509Z,978.43
2019-03-04T13:55:23.503Z,978.46
2019-03-04T13:56:23.453Z,978.51
2019-03-04T13:57:23.439Z,978.44
2019-03-04T13:58:23.436Z,978.49
2019-03-04T13:59:23.447Z,978.54
2019-03-04T14:00:23.412Z,978.55
2019-03-04T14:01:24.580Z,978.54
2019-03-04T14:02:23.390Z,978.64
2019-03-04T14:03:23.381Z,978.66
2019-03-04T14:04:23.399Z,978.73
2019-03-04T14:05:23.361Z,978.77
2019-03-04T14:06:23.339Z,978.82
2019-03-04T14:07:23.364Z,978.84
2019-03-04T14:08:23.322Z,978.86
2019-03-04T14:09:23.345Z,978.92
2019-03-04T14:10:23.294Z,978.94
2019-03-04T14:11:23.285Z,978.94
2019-03-04T14:12:23.275Z,978.97
2019-03-04T14:13:23.296Z,979.00
2019-03-04T14:14:23.281Z,978.96
2019-03-04T14:15:23.247Z,978.98
2019-03-04T14:16:23.227Z,979.00
2019-03-04T14:17:23.227Z,979.00
2019-03-04T14:18:23.207Z,979.04
2019-03-04T14:19:23.233Z,979.06
2019-03-04T14:20:23.191Z,979.10
2019-03-04T14:21:23.191Z,979.08
2019-03-04T14:22:23.162Z,979.12
2019-03-04T14:23:23.150Z,979.11
2019-03-04T14:24:23.164Z,979.06
2019-03-04T14:25:23.145Z,979.17
2019-03-04T14:26:23.120Z,979.12
2019-03-04T14:27:23.109Z,979.08
2019-03-04T14:28:23.102Z,979.17
2019-03-04T14:29:23.108Z,979.12
2019-03-04T14:30:23.075Z,979.21
2019-03-04T14:31:23.114Z,979.12
2019-03-04T14:32:23.051Z,979.24
2019-03-04T14:33:23.038Z,979.30
2019-03-04T14:34:23.030Z,979.30
2019-03-04T14:35:23.042Z,979.21
2019-03-04T14:36:23.015Z,979.40
2019-03-04T14:37:23.033Z,979.49
2019-03-04T14:38:22.985Z,979.44
2019-03-04T14:39:22.973Z,979.48
2019-03-04T14:40:22.988Z,979.48
2019-03-04T14:41:22.955Z,979.50
2019-03-04T14:42:22.939Z,979.53
2019-03-04T14:43:22.952Z,979.56
2019-03-04T14:44:22.917Z,979.55
2019-03-04T14:45:22.928Z,979.54
2019-03-04T14:46:22.896Z,979.57
2019-03-04T14:47:22.888Z,979.55
2019-03-04T14:48:22.871Z,979.64
2019-03-04T14:49:22.909Z,979.69
2019-03-04T14:50:22.873Z,979.73
2019-03-04T14:51:22.837Z,979.69
2019-03-04T14:52:22.831Z,979.75
2019-03-04T14:53:22.820Z,979.73
2019-03-04T14:54:22.804Z,979.72
2019-03-04T14:55:22.848Z,979.80
2019-03-04T14:56:22.918Z,979.82
2019-03-04T14:57:22.778Z,979.77
2019-03-04T14:58:22.760Z,979.80
2019-03-04T14:59:22.749Z,979.90
2019-03-04T15:00:22.761Z,979.85
2019-03-04T15:01:22.738Z,979.88
2019-03-04T15:02:22.721Z,979.77
2019-03-04T15:03:23.856Z,979.95
2019-03-04T15:04:22.706Z,979.99
2019-03-04T15:05:22.708Z,979.96
2019-03-04T15:06:22.675Z,979.92
2019-03-04T15:07:22.716Z,980.04
2019-03-04T15:08:22.648Z,980.07
2019-03-04T15:09:22.639Z,980.06
2019-03-04T15:10:22.649Z,980.17
2019-03-04T15:11:22.615Z,980.18
2019-03-04T15:12:22.605Z,980.21
2019-03-04T15:13:22.620Z,980.25
2019-03-04T15:14:22.581Z,980.30
2019-03-04T15:15:22.599Z,980.28
2019-03-04T15:16:22.558Z,980.34
2019-03-04T15:17:22.555Z,980.33
2019-03-04T15:18:22.537Z,980.33
2019-03-04T15:19:22.553Z,980.35
2019-03-04T15:20:22.538Z,980.31
2019-03-04T15:21:22.504Z,980.42
2019-03-04T15:22:22.493Z,980.36
2019-03-04T15:23:22.485Z,980.48
2019-03-04T15:24:22.472Z,980.49
2019-03-04T15:25:22.520Z,980.50
2019-03-04T15:26:22.447Z,980.50
2019-03-04T15:27:22.441Z,980.49
2019-03-04T15:28:22.425Z,980.55
2019-03-04T15:29:22.416Z,980.60
2019-03-04T15:30:22.430Z,980.60
2019-03-04T15:31:22.414Z,980.63
2019-03-04T15:32:22.710Z,980.58
2019-03-04T15:33:22.418Z,980.63
2019-03-04T15:34:22.364Z,980.64
2019-03-04T15:35:22.377Z,980.68
2019-03-04T15:36:22.364Z,980.69
2019-03-04T15:37:22.340Z,980.71
2019-03-04T15:38:22.315Z,980.82
2019-03-04T15:39:23.346Z,980.73
2019-03-04T15:40:22.296Z,980.75
2019-03-04T15:41:22.305Z,980.75
2019-03-04T15:42:22.271Z,980.82
2019-03-04T15:43:22.281Z,980.83
2019-03-04T15:44:22.248Z,980.87
2019-03-04T15:45:22.240Z,980.86
2019-03-04T15:46:22.248Z,980.92
2019-03-04T15:47:22.216Z,980.91
2019-03-04T15:48:22.209Z,980.94
2019-03-04T15:49:22.194Z,980.96
2019-03-04T15:50:22.201Z,980.96
2019-03-04T15:51:22.199Z,980.95
2019-03-04T15:52:22.162Z,980.95
2019-03-04T15:53:22.149Z,980.93
2019-03-04T15:54:22.137Z,980.95
2019-03-04T15:55:22.131Z,980.99
2019-03-04T15:56:22.138Z,981.04
2019-03-04T15:57:22.119Z,981.07
2019-03-04T15:58:22.091Z,981.06
2019-03-04T15:59:22.082Z,981.12
2019-03-04T16:00:22.069Z,981.15
2019-03-04T16:01:22.084Z,981.10
2019-03-04T16:02:22.049Z,981.14
2019-03-04T16:03:22.056Z,981.13
2019-03-04T16:04:22.027Z,981.08
2019-03-04T16:05:22.018Z,981.14
2019-03-04T16:06:22.026Z,981.17
2019-03-04T16:07:21.993Z,981.23
2019-03-04T16:08:21.981Z,981.24
2019-03-04T16:09:21.988Z,981.29
2019-03-04T16:10:21.974Z,981.25
2019-03-04T16:11:21.974Z,981.30
2019-03-04T16:12:22.009Z,981.34
2019-03-04T16:13:21.925Z,981.27
2019-03-04T16:14:21.917Z,981.28
2019-03-04T16:15:21.938Z,981.31
2019-03-04T16:16:21.926Z,981.43
2019-03-04T16:17:21.880Z,981.45
2019-03-04T16:18:21.898Z,981.47
2019-03-04T16:19:23.603Z,981.47
2019-03-04T16:20:21.858Z,981.42
2019-03-04T16:21:21.860Z,981.34
2019-03-04T16:22:21.862Z,981.44
2019-03-04T16:23:21.816Z,981.49
2019-03-04T16:24:21.802Z,981.48
2019-03-04T16:25:21.793Z,981.42
2019-03-04T16:26:21.787Z,981.48
2019-03-04T16:27:21.805Z,981.48
2019-03-04T16:28:21.795Z,981.52
2019-03-04T16:29:21.753Z,981.60
2019-03-04T16:30:21.738Z,981.64
2019-03-04T16:31:21.729Z,981.56
2019-03-04T16:32:21.756Z,981.65
2019-03-04T16:33:21.703Z,981.67
2019-03-04T16:34:21.708Z,981.68
2019-03-04T16:35:21.684Z,981.78
2019-03-04T16:36:21.676Z,981.77
2019-03-04T16:37:21.681Z,981.75
2019-03-04T16:38:21.649Z,981.80
2019-03-04T16:39:21.656Z,981.83
2019-03-04T16:40:21.650Z,981.82
2019-03-04T16:41:21.616Z,981.84
2019-03-04T16:42:21.628Z,981.86
2019-03-04T16:43:21.599Z,981.85
2019-03-04T16:44:21.582Z,981.89
2019-03-04T16:45:21.569Z,981.97
2019-03-04T16:46:21.618Z,981.87
2019-03-04T16:47:21.576Z,981.96
2019-03-04T16:48:21.549Z,981.96
2019-03-04T16:49:21.525Z,981.98
2019-03-04T16:50:21.514Z,981.97
2019-03-04T16:51:21.512Z,981.99
2019-03-04T16:52:21.544Z,982.01
2019-03-04T16:53:21.488Z,982.01
2019-03-04T16:54:21.473Z,982.12
2019-03-04T16:55:21.458Z,982.15
2019-03-04T16:56:21.454Z,982.15
2019-03-04T16:57:21.463Z,982.19
2019-03-04T16:58:21.448Z,982.23
2019-03-04T16:59:21.420Z,982.22
2019-03-04T17:00:21.430Z,982.26
2019-03-04T17:01:21.398Z,982.22
2019-03-04T17:02:21.380Z,982.20
2019-03-04T17:03:21.437Z,982.29
2019-03-04T17:04:21.373Z,982.31
2019-03-04T17:05:21.353Z,982.32
2019-03-04T17:06:21.337Z,982.30
2019-03-04T17:07:21.325Z,982.30
2019-03-04T17:08:21.336Z,982.37
2019-03-04T17:09:21.302Z,982.36
2019-03-04T17:10:21.318Z,982.35
2019-03-04T17:11:21.280Z,982.42
2019-03-04T17:12:21.276Z,982.43
2019-03-04T17:13:21.281Z,982.44
2019-03-04T17:14:21.246Z,982.43
2019-03-04T17:15:21.250Z,982.47
2019-03-04T17:16:21.239Z,982.49
2019-03-04T17:17:21.211Z,982.49
2019-03-04T17:18:21.228Z,982.53
2019-03-04T17:19:21.189Z,982.50
2019-03-04T17:20:21.185Z,982.54
2019-03-04T17:21:21.205Z,982.54
2019-03-04T17:22:21.175Z,982.56
2019-03-04T17:23:21.201Z,982.51
2019-03-04T17:24:21.136Z,982.55
2019-03-04T17:25:21.157Z,982.55
2019-03-04T17:26:21.112Z,982.54
2019-03-04T17:27:21.108Z,982.57
2019-03-04T17:28:21.113Z,982.63
2019-03-04T17:29:21.104Z,982.62
2019-03-04T17:30:21.075Z,982.62
2019-03-04T17:31:21.061Z,982.70
2019-03-04T17:32:21.043Z,982.75
2019-03-04T17:33:21.055Z,982.78
2019-03-04T17:34:21.025Z,982.73
2019-03-04T17:35:21.007Z,982.77
2019-03-04T17:36:21.033Z,982.79
2019-03-04T17:37:20.990Z,982.81
2019-03-04T17:38:21.000Z,982.84
2019-03-04T17:39:20.967Z,982.87
2019-03-04T17:40:20.955Z,982.87
2019-03-04T17:41:20.963Z,982.86
2019-03-04T17:42:20.943Z,982.87
2019-03-04T17:43:20.918Z,982.89
2019-03-04T17:44:20.912Z,982.93
2019-03-04T17:45:20.901Z,982.94
2019-03-04T17:46:20.924Z,982.91
2019-03-04T17:47:20.883Z,982.96
2019-03-04T17:48:20.863Z,982.95
2019-03-04T17:49:20.873Z,982.95
2019-03-04T17:50:20.840Z,982.95
2019-03-04T17:51:20.828Z,982.96
2019-03-04T17:52:20.817Z,982.98
2019-03-04T17:53:20.817Z,983.01
2019-03-04T17:54:20.817Z,983.02
2019-03-04T17:55:20.785Z,982.98
2019-03-04T17:56:20.770Z,983.00
2019-03-04T17:57:20.764Z,983.04
2019-03-04T17:58:20.747Z,983.01
2019-03-04T17:59:20.781Z,983.07
2019-03-04T18:00:20.762Z,983.07
2019-03-04T18:01:20.725Z,983.05
2019-03-04T18:02:20.702Z,983.18
2019-03-04T18:03:20.691Z,983.09
2019-03-04T18:04:20.703Z,983.10
2019-03-04T18:05:20.669Z,983.15
2019-03-04T18:06:20.690Z,983.12
2019-03-04T18:07:20.647Z,983.15
2019-03-04T18:08:20.634Z,983.15
2019-03-04T18:09:20.646Z,983.17
2019-03-04T18:10:20.615Z,983.20
2019-03-04T18:11:20.608Z,983.17
2019-03-04T18:12:20.613Z,983.23
2019-03-04T18:13:20.577Z,983.23
2019-03-04T18:14:20.591Z,983.28
2019-03-04T18:15:20.557Z,983.27
2019-03-04T18:16:20.549Z,983.23
2019-03-04T18:17:20.532Z,983.28
2019-03-04T18:18:20.533Z,983.28
2019-03-04T18:19:20.533Z,983.27
2019-03-04T18:20:20.505Z,983.29
2019-03-04T18:21:20.491Z,983.34
2019-03-04T18:22:20.477Z,983.32
2019-03-04T18:23:20.471Z,983.33
2019-03-04T18:24:20.493Z,983.39
2019-03-04T18:25:20.444Z,983.36
2019-03-04T18:26:20.433Z,983.46
2019-03-04T18:27:20.421Z,983.38
2019-03-04T18:28:20.416Z,983.33
2019-03-04T18:29:20.423Z,983.40
2019-03-04T18:30:20.389Z,983.42
2019-03-04T18:31:20.413Z,983.44
2019-03-04T18:32:20.396Z,983.48
2019-03-04T18:33:20.357Z,983.49
2019-03-04T18:34:20.346Z,983.47
2019-03-04T18:35:20.358Z,983.48
2019-03-04T18:36:20.328Z,983.52
2019-03-04T18:37:20.329Z,983.50
2019-03-04T18:38:20.303Z,983.53
2019-03-04T18:39:20.291Z,983.57
2019-03-04T18:40:20.299Z,983.56
2019-03-04T18:41:20.268Z,983.53
2019-03-04T18:42:20.258Z,983.58
2019-03-04T18:43:20.257Z,983.59
2019-03-04T18:44:20.233Z,983.62
2019-03-04T18:45:20.251Z,983.60
2019-03-04T18:46:20.210Z,983.60
2019-03-04T18:47:20.200Z,983.61
2019-03-04T18:48:20.187Z,983.64
2019-03-04T18:49:20.194Z,983.62
2019-03-04T18:50:20.189Z,983.69
2019-03-04T18:51:20.158Z,983.70
2019-03-04T18:52:20.148Z,983.65
2019-03-04T18:53:20.132Z,983.68
2019-03-04T18:54:20.129Z,983.67
2019-03-04T18:55:20.160Z,983.62
2019-03-04T18:56:22.199Z,983.61
2019-03-04T18:57:20.103Z,983.68
2019-03-04T18:58:20.076Z,983.64
2019-03-04T18:59:20.076Z,983.68
2019-03-04T19:00:20.078Z,983.70
2019-03-04T19:01:20.054Z,983.66
2019-03-04T19:02:20.042Z,983.70
2019-03-04T19:03:20.021Z,983.71
2019-03-04T19:04:20.015Z,983.67
2019-03-04T19:05:20.027Z,983.71
2019-03-04T19:06:19.989Z,983.67
2019-03-04T19:07:19.984Z,983.75
2019-03-04T19:08:19.987Z,983.73
2019-03-04T19:09:19.954Z,983.80
2019-03-04T19:10:19.941Z,983.79
2019-03-04T19:11:19.953Z,983.77
2019-03-04T19:12:19.918Z,983.82
2019-03-04T19:13:19.936Z,983.78
2019-03-04T19:14:19.895Z,983.86
2019-03-04T19:15:19.889Z,983.80
2019-03-04T19:16:19.896Z,983.79
2019-03-04T19:17:19.873Z,983.78
2019-03-04T19:18:19.850Z,983.84
2019-03-04T19:19:19.842Z,983.84
2019-03-04T19:20:19.831Z,983.88
2019-03-04T19:21:19.844Z,983.89
2019-03-04T19:22:20.457Z,983.87
2019-03-04T19:23:19.810Z,983.88
2019-03-04T19:24:19.783Z,983.88
2019-03-04T19:25:19.774Z,983.84
2019-03-04T19:26:19.782Z,983.92
2019-03-04T19:27:19.751Z,983.88
2019-03-04T19:28:19.739Z,983.81
2019-03-04T19:29:19.781Z,983.84
2019-03-04T19:30:19.719Z,983.87
2019-03-04T19:31:19.728Z,983.89
2019-03-04T19:32:19.693Z,983.88
2019-03-04T19:33:19.685Z,983.84
2019-03-04T19:34:19.672Z,983.84
2019-03-04T19:35:19.721Z,983.87
2019-03-04T19:36:19.674Z,983.83
2019-03-04T19:37:19.637Z,983.78
2019-03-04T19:38:19.630Z,983.76
2019-03-04T19:39:19.638Z,983.80
2019-03-04T19:40:19.602Z,983.78
2019-03-04T19:41:19.609Z,983.80
2019-03-04T19:42:19.604Z,983.75
2019-03-04T19:43:19.572Z,983.72
2019-03-04T19:44:19.563Z,983.72
2019-03-04T19:45:19.547Z,983.70
2019-03-04T19:46:19.536Z,983.72
2019-03-04T19:47:19.572Z,983.74
2019-03-04T19:48:19.513Z,983.73
2019-03-04T19:49:19.506Z,983.75
2019-03-04T19:50:19.495Z,983.75
2019-03-04T19:51:19.481Z,983.82
2019-03-04T19:52:19.493Z,983.80
2019-03-04T19:53:19.483Z,983.86
2019-03-04T19:54:19.446Z,983.82
2019-03-04T19:55:19.435Z,983.82
2019-03-04T19:56:19.422Z,983.80
2019-03-04T19:57:19.437Z,983.78
2019-03-04T19:58:19.400Z,983.83
2019-03-04T19:59:19.404Z,983.78
2019-03-04T20:00:19.386Z,983.73
2019-03-04T20:01:19.368Z,983.73
2019-03-04T20:02:19.378Z,983.74
2019-03-04T20:03:19.343Z,983.76
2019-03-04T20:04:19.331Z,983.76
2019-03-04T20:05:19.345Z,983.78
2019-03-04T20:06:19.318Z,983.80
2019-03-04T20:07:19.320Z,983.78
2019-03-04T20:08:19.287Z,983.76
2019-03-04T20:09:19.279Z,983.76
2019-03-04T20:10:19.269Z,983.75
2019-03-04T20:11:19.285Z,983.80
2019-03-04T20:12:19.265Z,983.80
2019-03-04T20:13:19.229Z,983.83
2019-03-04T20:14:19.243Z,983.83
2019-03-04T20:15:19.226Z,983.84
2019-03-04T20:16:19.201Z,983.84
2019-03-04T20:17:19.192Z,983.87
2019-03-04T20:18:19.195Z,983.87
2019-03-04T20:19:19.162Z,983.89
2019-03-04T20:20:19.158Z,983.92
2019-03-04T20:21:19.149Z,983.95
2019-03-04T20:22:19.130Z,983.95
2019-03-04T20:23:19.161Z,984.00
2019-03-04T20:24:19.115Z,983.97
2019-03-04T20:25:19.098Z,984.01
2019-03-04T20:26:19.086Z,984.02
2019-03-04T20:27:19.072Z,983.98
2019-03-04T20:28:19.089Z,984.01
2019-03-04T20:29:19.070Z,984.03
2019-03-04T20:30:19.038Z,983.99
2019-03-04T20:31:19.028Z,983.98
2019-03-04T20:32:19.033Z,984.06
2019-03-04T20:33:19.030Z,984.04
2019-03-04T20:34:18.993Z,984.09
2019-03-04T20:35:19.019Z,984.13
2019-03-04T20:36:18.974Z,984.17
2019-03-04T20:37:18.960Z,984.22
2019-03-04T20:38:18.970Z,984.18
2019-03-04T20:39:18.941Z,984.19
2019-03-04T20:40:18.924Z,984.21
2019-03-04T20:41:18.930Z,984.21
2019-03-04T20:42:18.904Z,984.24
2019-03-04T20:43:18.919Z,984.23
2019-03-04T20:44:18.879Z,984.29
2019-03-04T20:45:18.866Z,984.22
2019-03-04T20:46:18.855Z,984.26
2019-03-04T20:47:18.897Z,984.22
2019-03-04T20:48:18.857Z,984.21
2019-03-04T20:49:18.827Z,984.29
2019-03-04T20:50:18.813Z,984.27
2019-03-04T20:51:18.800Z,984.13
2019-03-04T20:52:18.788Z,984.24
2019-03-04T20:53:18.811Z,984.27
2019-03-04T20:54:18.770Z,984.28
2019-03-04T20:55:18.757Z,984.34
2019-03-04T20:56:18.744Z,984.31
2019-03-04T20:57:18.733Z,984.32
2019-03-04T20:58:18.745Z,984.34
2019-03-04T20:59:18.727Z,984.34
2019-03-04T21:00:18.702Z,984.36
2019-03-04T21:01:18.689Z,984.32
2019-03-04T21:02:18.679Z,984.40
2019-03-04T21:03:18.691Z,984.41
2019-03-04T21:04:18.656Z,984.40
2019-03-04T21:05:18.751Z,984.40
2019-03-04T21:06:18.637Z,984.41
2019-03-04T21:07:18.628Z,984.44
2019-03-04T21:08:18.636Z,984.37
2019-03-04T21:09:18.601Z,984.50
2019-03-04T21:10:18.591Z,984.52
2019-03-04T21:11:18.600Z,984.52
2019-03-04T21:12:18.572Z,984.56
2019-03-04T21:13:18.583Z,984.50
2019-03-04T21:14:18.551Z,984.56
2019-03-04T21:15:18.558Z,984.57
2019-03-04T21:16:18.522Z,984.56
2019-03-04T21:17:18.559Z,984.62
2019-03-04T21:18:18.502Z,984.64
2019-03-04T21:19:18.518Z,984.69
2019-03-04T21:20:18.481Z,984.69
2019-03-04T21:21:18.468Z,984.65
2019-03-04T21:22:18.457Z,984.64
2019-03-04T21:23:18.465Z,984.64
2019-03-04T21:24:18.457Z,984.65
2019-03-04T21:25:18.424Z,984.63
2019-03-04T21:26:18.433Z,984.67
2019-03-04T21:27:18.403Z,984.73
2019-03-04T21:28:18.388Z,984.72